createdAt,value
2018-08-24T00:00:06.318Z,20.20
2018-08-24T00:05:13.176Z,18.10
2018-08-24T00:10:19.287Z,20.37
2018-08-24T00:15:23.906Z,19.70
2018-08-24T00:20:27.957Z,19.43
2018-08-24T00:25:32.238Z,16.60
2018-08-24T00:30:38.415Z,18.30
2018-08-24T00:35:43.448Z,16.87
2018-08-24T00:40:51.647Z,20.03
2018-08-24T00:45:56.050Z,16.10
2018-08-24T00:51:00.302Z,16.27
2018-08-24T00:56:05.670Z,16.70
2018-08-24T01:01:12.330Z,15.70
2018-08-24T01:06:25.002Z,15.03
2018-08-24T01:11:35.244Z,13.20
2018-08-24T01:16:45.468Z,13.97
2018-08-24T01:21:50.869Z,12.77
2018-08-24T01:27:01.500Z,11.97
2018-08-24T01:32:07.084Z,12.30
2018-08-24T01:37:13.507Z,12.03
2018-08-24T01:42:18.417Z,10.03
2018-08-24T01:47:23.480Z,9.00
2018-08-24T01:52:27.422Z,9.00
2018-08-24T01:57:35.545Z,6.20
2018-08-24T02:02:43.249Z,3.57
2018-08-24T02:07:53.252Z,2.93
2018-08-24T02:13:06.460Z,1.77
2018-08-24T02:18:21.632Z,1.17
2018-08-24T02:23:32.312Z,1.30
2018-08-24T02:28:39.644Z,1.50
2018-08-24T02:33:45.246Z,1.10
2018-08-24T02:38:51.868Z,1.13
2018-08-24T02:43:56.023Z,0.90
2018-08-24T02:49:00.098Z,0.63
2018-08-24T02:54:04.440Z,0.90
2018-08-24T02:59:10.228Z,1.33
2018-08-24T03:04:16.195Z,1.10
2018-08-24T03:09:22.810Z,1.37
2018-08-24T03:14:28.653Z,0.83
2018-08-24T03:19:34.493Z,0.80
2018-08-24T03:24:38.792Z,1.00
2018-08-24T03:29:43.297Z,1.20
2018-08-24T03:34:47.208Z,0.77
2018-08-24T03:39:52.161Z,0.70
2018-08-24T03:44:56.543Z,0.87
2018-08-24T03:50:02.748Z,0.70
2018-08-24T03:55:07.439Z,1.00
2018-08-24T04:00:16.228Z,0.70
2018-08-24T04:05:20.456Z,0.97
2018-08-24T04:10:25.300Z,0.90
2018-08-24T04:15:30.104Z,1.30
2018-08-24T04:20:36.393Z,1.00
2018-08-24T04:25:42.875Z,1.37
2018-08-24T04:30:47.939Z,1.53
2018-08-24T04:35:53.116Z,1.90
2018-08-24T04:40:58.289Z,1.90
2018-08-24T04:46:03.566Z,1.77
2018-08-24T04:51:08.645Z,1.90
2018-08-24T04:56:12.995Z,1.87
2018-08-24T05:01:17.603Z,1.97
2018-08-24T05:06:21.863Z,2.20
2018-08-24T05:11:26.981Z,1.67
2018-08-24T05:16:31.419Z,1.70
2018-08-24T05:21:35.974Z,1.47
2018-08-24T05:26:40.525Z,1.60
2018-08-24T05:31:45.211Z,1.50
2018-08-24T05:36:49.533Z,1.53
2018-08-24T05:41:53.867Z,1.80
2018-08-24T05:46:58.475Z,1.43
2018-08-24T05:52:03.597Z,1.90
2018-08-24T05:57:07.913Z,1.87
2018-08-24T06:02:12.927Z,1.80
2018-08-24T06:07:17.569Z,2.07
2018-08-24T06:12:22.110Z,1.07
2018-08-24T06:17:31.788Z,1.93
2018-08-24T06:22:36.139Z,1.73
2018-08-24T06:27:40.180Z,1.33
2018-08-24T06:32:44.170Z,1.60
2018-08-24T06:37:48.221Z,1.50
2018-08-24T06:42:53.886Z,1.87
2018-08-24T06:47:59.374Z,1.57
2018-08-24T06:53:04.575Z,1.33
2018-08-24T06:58:09.383Z,2.43
2018-08-24T07:03:13.864Z,1.93
2018-08-24T07:08:18.057Z,1.90
2018-08-24T07:13:23.476Z,2.27
2018-08-24T07:18:32.645Z,3.00
2018-08-24T07:23:37.728Z,2.73
2018-08-24T07:28:41.681Z,2.30
2018-08-24T07:33:44.063Z,2.30
2018-08-24T07:38:47.987Z,2.47
2018-08-24T07:43:52.658Z,3.83
2018-08-24T07:48:58.508Z,3.00
2018-08-24T07:54:04.601Z,3.87
2018-08-24T07:59:10.455Z,3.23
2018-08-24T08:04:16.571Z,4.10
2018-08-24T08:11:46.835Z,3.77
2018-08-24T08:16:53.638Z,4.43
2018-08-24T08:21:59.063Z,3.50
2018-08-24T08:27:04.199Z,4.40
2018-08-24T08:32:09.682Z,3.97
2018-08-24T08:37:15.994Z,4.27
2018-08-24T08:42:22.096Z,3.50
2018-08-24T08:47:28.480Z,4.50
2018-08-24T08:52:34.673Z,3.33
2018-08-24T08:57:40.348Z,3.20
2018-08-24T09:02:45.471Z,3.10
2018-08-24T09:07:47.962Z,3.10
2018-08-24T09:12:51.345Z,3.10
2018-08-24T09:18:00.468Z,3.50
2018-08-24T09:25:13.338Z,3.57
2018-08-24T09:30:17.271Z,4.23
2018-08-24T09:35:21.105Z,4.83
2018-08-24T09:40:31.295Z,4.60
2018-08-24T09:45:35.817Z,3.87
2018-08-24T09:50:45.324Z,4.87
2018-08-24T09:55:48.966Z,4.63
2018-08-24T10:00:58.454Z,4.00
2018-08-24T10:06:07.785Z,4.50
2018-08-24T10:11:12.074Z,4.70
2018-08-24T10:16:16.689Z,4.30
2018-08-24T10:21:20.913Z,4.70
2018-08-24T10:26:25.290Z,3.90
2018-08-24T10:31:29.479Z,3.90
2018-08-24T10:36:34.177Z,2.10
2018-08-24T10:41:39.237Z,1.07
2018-08-24T10:46:44.219Z,0.87
2018-08-24T10:54:16.635Z,1.40
2018-08-24T10:59:21.850Z,1.30
2018-08-24T11:04:26.901Z,1.23
2018-08-24T11:09:32.333Z,1.37
2018-08-24T11:14:37.789Z,1.37
2018-08-24T11:19:42.929Z,1.77
2018-08-24T11:24:48.418Z,1.63
2018-08-24T11:29:58.078Z,1.50
2018-08-24T11:35:04.067Z,1.73
2018-08-24T11:40:10.138Z,1.60
2018-08-24T11:45:15.401Z,1.50
2018-08-24T11:50:20.564Z,1.93
2018-08-24T11:55:24.631Z,1.90
2018-08-24T12:00:33.673Z,1.70
2018-08-24T12:05:36.029Z,2.73
2018-08-24T12:10:39.900Z,1.83
2018-08-24T12:15:42.743Z,2.67
2018-08-24T12:20:47.857Z,2.10
2018-08-24T12:25:52.848Z,1.63
2018-08-24T12:30:57.469Z,1.70
2018-08-24T12:35:59.908Z,2.47
2018-08-24T12:41:02.296Z,2.00
2018-08-24T12:46:05.449Z,1.60
2018-08-24T12:51:09.527Z,2.23
2018-08-24T12:56:19.902Z,14.50
2018-08-24T13:01:22.609Z,9.30
2018-08-24T13:06:24.833Z,1.63
2018-08-24T13:11:27.033Z,2.10
2018-08-24T13:16:30.827Z,1.73
2018-08-24T13:21:35.922Z,1.63
2018-08-24T13:26:41.632Z,1.97
2018-08-24T13:31:48.180Z,1.47
2018-08-24T13:36:53.006Z,1.47
2018-08-24T13:41:57.184Z,2.00
2018-08-24T13:47:01.276Z,1.50
2018-08-24T13:52:05.257Z,1.50
2018-08-24T13:57:10.432Z,4.00
2018-08-24T14:02:15.337Z,5.50
2018-08-24T14:07:20.590Z,1.60
2018-08-24T14:12:26.128Z,1.00
2018-08-24T14:17:31.456Z,1.23
2018-08-24T14:22:38.167Z,1.30
2018-08-24T14:27:43.618Z,1.53
2018-08-24T14:32:48.806Z,1.53
2018-08-24T14:37:54.351Z,1.17
2018-08-24T14:42:59.714Z,1.43
2018-08-24T14:48:03.788Z,1.20
2018-08-24T14:53:08.190Z,1.57
2018-08-24T14:58:12.925Z,1.37
2018-08-24T15:03:17.836Z,1.30
2018-08-24T15:08:22.839Z,2.53
2018-08-24T15:13:28.492Z,1.53
2018-08-24T15:18:33.681Z,2.00
2018-08-24T15:23:38.626Z,0.93
2018-08-24T15:28:44.452Z,1.87
2018-08-24T15:33:49.571Z,1.40
2018-08-24T15:38:55.937Z,1.50
2018-08-24T15:44:00.889Z,1.63
2018-08-24T15:49:05.591Z,1.50
2018-08-24T15:54:09.366Z,1.83
2018-08-24T15:59:14.062Z,2.30
2018-08-24T16:04:19.389Z,1.27
2018-08-24T16:09:24.720Z,1.70
2018-08-24T16:14:29.748Z,2.77
2018-08-24T16:19:33.547Z,2.00
2018-08-24T16:24:38.082Z,1.47
2018-08-24T16:29:42.559Z,1.70
2018-08-24T16:34:47.594Z,1.33
2018-08-24T16:39:52.482Z,1.70
2018-08-24T16:44:58.216Z,1.50
2018-08-24T16:50:03.495Z,2.17
2018-08-24T16:55:08.711Z,1.70
2018-08-24T17:00:13.680Z,1.50
2018-08-24T17:05:18.264Z,1.50
2018-08-24T17:10:24.455Z,1.70
2018-08-24T17:15:30.853Z,1.70
2018-08-24T17:20:38.203Z,2.20
2018-08-24T17:25:45.216Z,1.83
2018-08-24T17:30:52.574Z,1.83
2018-08-24T17:35:59.944Z,1.43
2018-08-24T17:41:07.105Z,1.80
2018-08-24T17:46:14.705Z,1.67
2018-08-24T17:51:22.552Z,1.80
2018-08-24T17:56:28.034Z,1.90
2018-08-24T18:01:33.694Z,2.13
2018-08-24T18:06:39.481Z,2.00
2018-08-24T18:11:45.402Z,2.10
2018-08-24T18:16:52.172Z,1.30
2018-08-24T18:21:58.091Z,1.50
2018-08-24T18:27:04.362Z,1.40
2018-08-24T18:32:11.230Z,1.20
2018-08-24T18:37:17.747Z,1.37
2018-08-24T18:42:23.240Z,1.70
2018-08-24T18:47:28.841Z,1.60
2018-08-24T18:52:34.528Z,1.57
2018-08-24T18:57:43.345Z,1.50
2018-08-24T19:02:50.994Z,1.80
2018-08-24T19:08:04.590Z,1.50
2018-08-24T19:13:18.394Z,1.80
2018-08-24T19:23:47.934Z,1.57
2018-08-24T19:28:59.276Z,1.80
2018-08-24T19:34:05.998Z,1.70
2018-08-24T19:39:15.214Z,1.30
2018-08-24T19:44:20.274Z,1.50
2018-08-24T19:49:24.680Z,1.57
2018-08-24T19:54:31.336Z,1.67
2018-08-24T19:59:39.554Z,1.40
2018-08-24T20:04:50.171Z,1.93
2018-08-24T20:10:09.005Z,2.00
2018-08-24T20:15:21.903Z,1.77
2018-08-24T20:20:29.262Z,1.50
2018-08-24T20:25:37.525Z,1.40
2018-08-24T20:30:43.177Z,1.87
2018-08-24T20:35:48.091Z,1.90
2018-08-24T20:40:53.100Z,1.50
2018-08-24T20:45:59.105Z,2.07
2018-08-24T20:51:05.308Z,1.60
2018-08-24T20:56:11.353Z,1.70
2018-08-24T21:01:17.459Z,1.80
2018-08-24T21:06:23.440Z,1.57
2018-08-24T21:11:35.148Z,1.93
2018-08-24T21:16:44.981Z,1.30
2018-08-24T21:21:56.066Z,1.50
2018-08-24T21:27:10.056Z,1.57
2018-08-24T21:32:20.793Z,2.10
2018-08-24T21:37:27.112Z,1.40
2018-08-24T21:42:32.406Z,1.30
2018-08-24T21:47:37.668Z,1.40
2018-08-24T21:52:46.318Z,1.90
2018-08-24T22:00:21.884Z,1.50
2018-08-24T22:05:29.185Z,2.10
2018-08-24T22:10:37.202Z,2.30
2018-08-24T22:15:45.177Z,2.13
2018-08-24T22:20:54.288Z,2.37
2018-08-24T22:26:05.915Z,1.90
2018-08-24T22:31:17.658Z,1.20
2018-08-24T22:36:26.474Z,1.53
2018-08-24T22:41:40.332Z,1.60
2018-08-24T22:46:53.719Z,1.73
2018-08-24T22:52:01.115Z,2.23
2018-08-24T22:57:07.851Z,1.60
2018-08-24T23:02:14.571Z,1.20
2018-08-24T23:07:22.085Z,1.73
2018-08-24T23:12:28.844Z,1.73
2018-08-24T23:17:36.201Z,2.07
2018-08-24T23:22:41.283Z,1.80
2018-08-24T23:27:44.746Z,1.60
2018-08-24T23:32:48.492Z,2.40
2018-08-24T23:37:53.502Z,2.30
2018-08-24T23:42:59.706Z,2.63
2018-08-24T23:48:08.194Z,3.27
2018-08-24T23:53:14.970Z,2.20
2018-08-24T23:58:21.674Z,2.43
